Terminal Aerodrome Forecast
Issued by NWS

Home | Current Version | Previous Version | Text Only | Print | Product List | Glossary On
Versions: 1 2 3 4 5 6 7 8 9 10 11 12 13
000
FTUS41 KCAR 272320
TAFFVE
TAF
KFVE 272320Z 2800/2824 35006KT P6SM VCSH SCT025 BKN040
      TEMPO 2801/2803 2SM +SHRA OVC020
     FM280700 VRB03KT 3SM -SHRA BR OVC007
     FM281200 VRB03KT P6SM OVC015
     FM281500 27008KT P6SM OVC035=

USA.gov is the U.S. government's official web portal to all federal, state and local government web resources and services.